sensor_id;sensor_type;location;lat;lon;timestamp;temperature;humidity
16158;DHT22;8184;60.256;18.694;2023-06-14T00:01:01;13.70;99.90
16158;DHT22;8184;60.256;18.694;2023-06-14T00:03:33;13.70;99.90
16158;DHT22;8184;60.256;18.694;2023-06-14T00:06:01;13.70;99.90
16158;DHT22;8184;60.256;18.694;2023-06-14T00:08:29;13.50;99.90
16158;DHT22;8184;60.256;18.694;2023-06-14T00:10:58;13.40;99.90
16158;DHT22;8184;60.256;18.694;2023-06-14T00:13:27;13.40;99.90
16158;DHT22;8184;60.256;18.694;2023-06-14T00:15:56;13.50;99.90
16158;DHT22;8184;60.256;18.694;2023-06-14T00:18:25;13.50;99.90
16158;DHT22;8184;60.256;18.694;2023-06-14T00:20:56;13.50;99.90
16158;DHT22;8184;60.256;18.694;2023-06-14T00:23:24;13.50;99.90
16158;DHT22;8184;60.256;18.694;2023-06-14T00:25:53;13.50;99.90
16158;DHT22;8184;60.256;18.694;2023-06-14T00:28:21;13.40;99.90
16158;DHT22;8184;60.256;18.694;2023-06-14T00:30:49;13.40;99.90
16158;DHT22;8184;60.256;18.694;2023-06-14T00:33:19;13.30;99.90
16158;DHT22;8184;60.256;18.694;2023-06-14T00:35:48;13.20;99.90
16158;DHT22;8184;60.256;18.694;2023-06-14T00:38:16;13.00;99.90
16158;DHT22;8184;60.256;18.694;2023-06-14T00:40:44;13.40;99.90
16158;DHT22;8184;60.256;18.694;2023-06-14T00:43:13;13.40;99.90
16158;DHT22;8184;60.256;18.694;2023-06-14T00:45:41;13.30;99.90
16158;DHT22;8184;60.256;18.694;2023-06-14T00:48:09;13.30;99.90
16158;DHT22;8184;60.256;18.694;2023-06-14T00:50:40;13.30;99.90
16158;DHT22;8184;60.256;18.694;2023-06-14T00:53:08;13.10;99.90
16158;DHT22;8184;60.256;18.694;2023-06-14T00:55:37;13.00;99.90
16158;DHT22;8184;60.256;18.694;2023-06-14T00:58:05;13.00;99.90
16158;DHT22;8184;60.256;18.694;2023-06-14T01:00:35;13.00;99.90
16158;DHT22;8184;60.256;18.694;2023-06-14T01:03:04;13.10;99.90
16158;DHT22;8184;60.256;18.694;2023-06-14T01:05:36;12.90;99.90
16158;DHT22;8184;60.256;18.694;2023-06-14T01:08:09;12.90;99.90
16158;DHT22;8184;60.256;18.694;2023-06-14T01:10:45;12.90;99.90
16158;DHT22;8184;60.256;18.694;2023-06-14T01:13:19;12.90;99.90
16158;DHT22;8184;60.256;18.694;2023-06-14T01:15:48;13.00;99.90
16158;DHT22;8184;60.256;18.694;2023-06-14T01:18:18;12.80;99.90
16158;DHT22;8184;60.256;18.694;2023-06-14T01:20:46;12.70;99.90
16158;DHT22;8184;60.256;18.694;2023-06-14T01:23:18;12.80;99.90
16158;DHT22;8184;60.256;18.694;2023-06-14T01:25:46;12.90;99.90
16158;DHT22;8184;60.256;18.694;2023-06-14T01:28:20;12.90;99.90
16158;DHT22;8184;60.256;18.694;2023-06-14T01:30:48;12.80;99.90
16158;DHT22;8184;60.256;18.694;2023-06-14T01:33:19;12.80;99.90
16158;DHT22;8184;60.256;18.694;2023-06-14T01:35:48;12.80;99.90
16158;DHT22;8184;60.256;18.694;2023-06-14T01:38:19;12.70;99.90
16158;DHT22;8184;60.256;18.694;2023-06-14T01:40:47;12.70;99.90
16158;DHT22;8184;60.256;18.694;2023-06-14T01:43:18;12.70;99.90
16158;DHT22;8184;60.256;18.694;2023-06-14T01:45:47;12.60;99.90
16158;DHT22;8184;60.256;18.694;2023-06-14T01:48:16;12.60;99.90
16158;DHT22;8184;60.256;18.694;2023-06-14T01:50:44;12.60;99.90
16158;DHT22;8184;60.256;18.694;2023-06-14T01:53:13;12.60;99.90
16158;DHT22;8184;60.256;18.694;2023-06-14T01:55:46;12.60;99.90
16158;DHT22;8184;60.256;18.694;2023-06-14T01:58:15;12.50;99.90
16158;DHT22;8184;60.256;18.694;2023-06-14T02:00:44;12.40;99.90
16158;DHT22;8184;60.256;18.694;2023-06-14T02:03:14;12.60;99.90
16158;DHT22;8184;60.256;18.694;2023-06-14T02:05:42;12.50;99.90
16158;DHT22;8184;60.256;18.694;2023-06-14T02:08:11;12.40;99.90
16158;DHT22;8184;60.256;18.694;2023-06-14T02:10:39;12.50;99.90
16158;DHT22;8184;60.256;18.694;2023-06-14T02:13:09;12.50;99.90
16158;DHT22;8184;60.256;18.694;2023-06-14T02:15:40;12.40;99.90
16158;DHT22;8184;60.256;18.694;2023-06-14T02:18:11;12.40;99.90
16158;DHT22;8184;60.256;18.694;2023-06-14T02:20:39;12.30;99.90
16158;DHT22;8184;60.256;18.694;2023-06-14T02:23:08;12.50;99.90
16158;DHT22;8184;60.256;18.694;2023-06-14T02:25:39;12.50;99.90
16158;DHT22;8184;60.256;18.694;2023-06-14T02:28:07;12.50;99.90
16158;DHT22;8184;60.256;18.694;2023-06-14T02:30:37;12.50;99.90
16158;DHT22;8184;60.256;18.694;2023-06-14T02:33:05;12.40;99.90
16158;DHT22;8184;60.256;18.694;2023-06-14T02:35:34;12.40;99.90
16158;DHT22;8184;60.256;18.694;2023-06-14T02:38:04;12.40;99.90
16158;DHT22;8184;60.256;18.694;2023-06-14T02:40:32;12.40;99.90
16158;DHT22;8184;60.256;18.694;2023-06-14T02:43:01;12.50;99.90
16158;DHT22;8184;60.256;18.694;2023-06-14T02:45:29;12.60;99.90
16158;DHT22;8184;60.256;18.694;2023-06-14T02:47:59;12.90;99.90
16158;DHT22;8184;60.256;18.694;2023-06-14T02:50:27;13.00;99.90
16158;DHT22;8184;60.256;18.694;2023-06-14T02:52:57;13.40;99.90
16158;DHT22;8184;60.256;18.694;2023-06-14T02:55:25;13.60;99.90
16158;DHT22;8184;60.256;18.694;2023-06-14T02:57:54;13.90;99.90
16158;DHT22;8184;60.256;18.694;2023-06-14T03:00:24;14.30;99.90
16158;DHT22;8184;60.256;18.694;2023-06-14T03:02:53;14.50;99.90
16158;DHT22;8184;60.256;18.694;2023-06-14T03:05:23;14.50;99.90
16158;DHT22;8184;60.256;18.694;2023-06-14T03:07:51;14.80;99.90
16158;DHT22;8184;60.256;18.694;2023-06-14T03:10:23;15.00;99.90
16158;DHT22;8184;60.256;18.694;2023-06-14T03:12:52;15.30;99.90
16158;DHT22;8184;60.256;18.694;2023-06-14T03:15:20;15.50;99.90
16158;DHT22;8184;60.256;18.694;2023-06-14T03:17:50;15.60;99.90
16158;DHT22;8184;60.256;18.694;2023-06-14T03:20:20;15.90;99.90
16158;DHT22;8184;60.256;18.694;2023-06-14T03:22:50;16.20;99.90
16158;DHT22;8184;60.256;18.694;2023-06-14T03:25:18;16.30;99.90
16158;DHT22;8184;60.256;18.694;2023-06-14T03:27:48;16.20;99.90
16158;DHT22;8184;60.256;18.694;2023-06-14T03:30:16;16.60;99.90
16158;DHT22;8184;60.256;18.694;2023-06-14T03:32:45;16.90;99.90
16158;DHT22;8184;60.256;18.694;2023-06-14T03:35:13;16.70;99.90
16158;DHT22;8184;60.256;18.694;2023-06-14T03:37:44;16.90;99.90
16158;DHT22;8184;60.256;18.694;2023-06-14T03:40:15;16.90;99.90
16158;DHT22;8184;60.256;18.694;2023-06-14T03:42:44;17.10;99.90
16158;DHT22;8184;60.256;18.694;2023-06-14T03:45:12;17.30;99.90
16158;DHT22;8184;60.256;18.694;2023-06-14T03:47:40;17.50;99.90
16158;DHT22;8184;60.256;18.694;2023-06-14T03:50:09;17.50;99.90
16158;DHT22;8184;60.256;18.694;2023-06-14T03:52:38;17.70;99.90
16158;DHT22;8184;60.256;18.694;2023-06-14T03:55:07;17.90;99.90
16158;DHT22;8184;60.256;18.694;2023-06-14T03:57:43;18.00;99.90
16158;DHT22;8184;60.256;18.694;2023-06-14T04:00:11;18.30;99.90
16158;DHT22;8184;60.256;18.694;2023-06-14T04:02:40;18.30;99.90
16158;DHT22;8184;60.256;18.694;2023-06-14T04:05:09;18.50;99.90
16158;DHT22;8184;60.256;18.694;2023-06-14T04:07:37;18.60;99.90
16158;DHT22;8184;60.256;18.694;2023-06-14T04:10:07;18.60;99.90
16158;DHT22;8184;60.256;18.694;2023-06-14T04:12:36;18.60;99.90
16158;DHT22;8184;60.256;18.694;2023-06-14T04:15:11;18.80;99.90
16158;DHT22;8184;60.256;18.694;2023-06-14T04:17:47;18.80;99.90
16158;DHT22;8184;60.256;18.694;2023-06-14T04:20:16;19.40;99.90
16158;DHT22;8184;60.256;18.694;2023-06-14T04:22:45;19.90;99.90
16158;DHT22;8184;60.256;18.694;2023-06-14T04:25:13;20.00;99.90
16158;DHT22;8184;60.256;18.694;2023-06-14T04:27:48;20.20;99.90
16158;DHT22;8184;60.256;18.694;2023-06-14T04:30:18;20.40;99.90
16158;DHT22;8184;60.256;18.694;2023-06-14T04:32:48;20.40;99.90
16158;DHT22;8184;60.256;18.694;2023-06-14T04:35:20;20.30;99.90
16158;DHT22;8184;60.256;18.694;2023-06-14T04:37:50;20.60;99.90
16158;DHT22;8184;60.256;18.694;2023-06-14T04:40:20;20.50;99.90
16158;DHT22;8184;60.256;18.694;2023-06-14T04:42:48;20.50;99.90
16158;DHT22;8184;60.256;18.694;2023-06-14T04:45:19;20.00;99.90
16158;DHT22;8184;60.256;18.694;2023-06-14T04:47:48;20.30;99.90
16158;DHT22;8184;60.256;18.694;2023-06-14T04:50:18;20.30;99.90
16158;DHT22;8184;60.256;18.694;2023-06-14T04:52:47;20.10;99.90
16158;DHT22;8184;60.256;18.694;2023-06-14T04:55:18;19.90;99.90
16158;DHT22;8184;60.256;18.694;2023-06-14T04:57:47;19.70;99.90
16158;DHT22;8184;60.256;18.694;2023-06-14T05:00:16;20.10;99.90
16158;DHT22;8184;60.256;18.694;2023-06-14T05:02:46;20.00;99.90
16158;DHT22;8184;60.256;18.694;2023-06-14T05:05:17;19.40;99.90
16158;DHT22;8184;60.256;18.694;2023-06-14T05:07:46;19.40;99.90
16158;DHT22;8184;60.256;18.694;2023-06-14T05:10:15;19.40;99.90
16158;DHT22;8184;60.256;18.694;2023-06-14T05:12:43;19.10;99.90
16158;DHT22;8184;60.256;18.694;2023-06-14T05:15:12;18.70;99.90
16158;DHT22;8184;60.256;18.694;2023-06-14T05:17:42;18.50;99.90
16158;DHT22;8184;60.256;18.694;2023-06-14T05:20:12;18.40;99.90
16158;DHT22;8184;60.256;18.694;2023-06-14T05:22:40;18.30;99.90
16158;DHT22;8184;60.256;18.694;2023-06-14T05:25:09;17.60;99.90
16158;DHT22;8184;60.256;18.694;2023-06-14T05:27:37;17.30;99.90
16158;DHT22;8184;60.256;18.694;2023-06-14T05:30:08;17.40;99.90
16158;DHT22;8184;60.256;18.694;2023-06-14T05:32:37;17.40;99.90
16158;DHT22;8184;60.256;18.694;2023-06-14T05:35:06;17.50;99.90
16158;DHT22;8184;60.256;18.694;2023-06-14T05:37:36;17.80;99.90
16158;DHT22;8184;60.256;18.694;2023-06-14T05:40:05;18.10;99.90
16158;DHT22;8184;60.256;18.694;2023-06-14T05:42:33;18.00;99.90
16158;DHT22;8184;60.256;18.694;2023-06-14T05:45:02;18.00;99.90
16158;DHT22;8184;60.256;18.694;2023-06-14T05:47:30;18.00;99.90
16158;DHT22;8184;60.256;18.694;2023-06-14T05:49:59;18.30;99.90
16158;DHT22;8184;60.256;18.694;2023-06-14T05:52:27;18.70;99.90
16158;DHT22;8184;60.256;18.694;2023-06-14T05:54:57;18.70;99.90
16158;DHT22;8184;60.256;18.694;2023-06-14T05:57:28;19.00;99.90
16158;DHT22;8184;60.256;18.694;2023-06-14T05:59:56;18.80;99.90
16158;DHT22;8184;60.256;18.694;2023-06-14T06:02:24;18.80;99.90
16158;DHT22;8184;60.256;18.694;2023-06-14T06:04:53;18.80;99.90
16158;DHT22;8184;60.256;18.694;2023-06-14T06:07:24;19.20;99.90
16158;DHT22;8184;60.256;18.694;2023-06-14T06:09:53;19.40;99.90
16158;DHT22;8184;60.256;18.694;2023-06-14T06:12:25;19.50;99.90
16158;DHT22;8184;60.256;18.694;2023-06-14T06:14:54;19.30;99.90
16158;DHT22;8184;60.256;18.694;2023-06-14T06:17:22;19.00;99.90
16158;DHT22;8184;60.256;18.694;2023-06-14T06:19:51;18.60;99.90
16158;DHT22;8184;60.256;18.694;2023-06-14T06:22:19;18.80;99.90
16158;DHT22;8184;60.256;18.694;2023-06-14T06:24:47;19.20;99.90
16158;DHT22;8184;60.256;18.694;2023-06-14T06:27:18;19.40;99.90
16158;DHT22;8184;60.256;18.694;2023-06-14T06:29:48;19.50;99.90
16158;DHT22;8184;60.256;18.694;2023-06-14T06:32:18;19.70;99.90
16158;DHT22;8184;60.256;18.694;2023-06-14T06:34:46;20.50;99.90
16158;DHT22;8184;60.256;18.694;2023-06-14T06:37:15;20.10;99.90
16158;DHT22;8184;60.256;18.694;2023-06-14T06:39:43;20.50;99.90
16158;DHT22;8184;60.256;18.694;2023-06-14T06:42:13;20.20;99.90
16158;DHT22;8184;60.256;18.694;2023-06-14T06:44:41;20.30;99.90
16158;DHT22;8184;60.256;18.694;2023-06-14T06:47:17;20.70;99.90
16158;DHT22;8184;60.256;18.694;2023-06-14T06:49:50;20.40;99.90
16158;DHT22;8184;60.256;18.694;2023-06-14T06:52:19;20.70;99.90
16158;DHT22;8184;60.256;18.694;2023-06-14T06:54:47;20.20;99.90
16158;DHT22;8184;60.256;18.694;2023-06-14T06:57:16;20.70;99.90
16158;DHT22;8184;60.256;18.694;2023-06-14T06:59:44;20.10;99.90
16158;DHT22;8184;60.256;18.694;2023-06-14T07:02:17;20.10;99.90
16158;DHT22;8184;60.256;18.694;2023-06-14T07:04:46;20.70;99.90
16158;DHT22;8184;60.256;18.694;2023-06-14T07:07:14;20.30;99.90
16158;DHT22;8184;60.256;18.694;2023-06-14T07:09:42;20.80;99.90
16158;DHT22;8184;60.256;18.694;2023-06-14T07:12:11;20.40;99.90
16158;DHT22;8184;60.256;18.694;2023-06-14T07:14:39;20.10;99.90
16158;DHT22;8184;60.256;18.694;2023-06-14T07:17:08;20.20;99.90
16158;DHT22;8184;60.256;18.694;2023-06-14T07:19:38;20.50;99.90
16158;DHT22;8184;60.256;18.694;2023-06-14T07:22:08;20.80;99.90
16158;DHT22;8184;60.256;18.694;2023-06-14T07:24:36;20.30;99.90
16158;DHT22;8184;60.256;18.694;2023-06-14T07:27:07;20.60;99.90
16158;DHT22;8184;60.256;18.694;2023-06-14T07:29:38;20.60;99.90
16158;DHT22;8184;60.256;18.694;2023-06-14T07:32:07;20.90;99.90
16158;DHT22;8184;60.256;18.694;2023-06-14T07:34:35;21.20;99.90
16158;DHT22;8184;60.256;18.694;2023-06-14T07:37:08;21.30;99.90
16158;DHT22;8184;60.256;18.694;2023-06-14T07:39:36;21.60;99.90
16158;DHT22;8184;60.256;18.694;2023-06-14T07:42:05;21.70;99.90
16158;DHT22;8184;60.256;18.694;2023-06-14T07:44:34;21.70;99.90
16158;DHT22;8184;60.256;18.694;2023-06-14T07:47:03;21.70;99.90
16158;DHT22;8184;60.256;18.694;2023-06-14T07:49:31;21.50;99.90
16158;DHT22;8184;60.256;18.694;2023-06-14T07:52:00;21.10;99.90
16158;DHT22;8184;60.256;18.694;2023-06-14T07:54:30;21.50;99.90
16158;DHT22;8184;60.256;18.694;2023-06-14T07:56:59;22.00;99.90
16158;DHT22;8184;60.256;18.694;2023-06-14T07:59:27;21.50;99.90
16158;DHT22;8184;60.256;18.694;2023-06-14T08:01:56;21.50;99.90
16158;DHT22;8184;60.256;18.694;2023-06-14T08:04:24;21.40;99.90
16158;DHT22;8184;60.256;18.694;2023-06-14T08:06:53;21.30;99.90
16158;DHT22;8184;60.256;18.694;2023-06-14T08:09:24;21.40;99.90
16158;DHT22;8184;60.256;18.694;2023-06-14T08:11:55;21.40;99.90
16158;DHT22;8184;60.256;18.694;2023-06-14T08:14:24;22.30;99.90
16158;DHT22;8184;60.256;18.694;2023-06-14T08:16:52;22.70;99.90
16158;DHT22;8184;60.256;18.694;2023-06-14T08:19:21;22.20;99.90
16158;DHT22;8184;60.256;18.694;2023-06-14T08:21:49;21.90;99.90
16158;DHT22;8184;60.256;18.694;2023-06-14T08:24:18;21.90;99.90
16158;DHT22;8184;60.256;18.694;2023-06-14T08:26:53;21.90;99.90
16158;DHT22;8184;60.256;18.694;2023-06-14T08:29:22;21.60;99.90
16158;DHT22;8184;60.256;18.694;2023-06-14T08:31:51;21.90;99.90
16158;DHT22;8184;60.256;18.694;2023-06-14T08:34:23;21.90;99.90
16158;DHT22;8184;60.256;18.694;2023-06-14T08:36:51;21.90;99.90
16158;DHT22;8184;60.256;18.694;2023-06-14T08:39:19;21.30;99.90
16158;DHT22;8184;60.256;18.694;2023-06-14T08:41:49;21.20;99.90
16158;DHT22;8184;60.256;18.694;2023-06-14T08:44:18;21.30;99.90
16158;DHT22;8184;60.256;18.694;2023-06-14T08:46:50;21.10;99.90
16158;DHT22;8184;60.256;18.694;2023-06-14T08:49:20;21.40;99.90
16158;DHT22;8184;60.256;18.694;2023-06-14T08:51:50;21.50;99.90
16158;DHT22;8184;60.256;18.694;2023-06-14T08:54:21;21.50;99.90
16158;DHT22;8184;60.256;18.694;2023-06-14T08:56:54;22.30;99.90
16158;DHT22;8184;60.256;18.694;2023-06-14T08:59:24;21.90;99.90
16158;DHT22;8184;60.256;18.694;2023-06-14T09:01:54;21.70;99.90
16158;DHT22;8184;60.256;18.694;2023-06-14T09:04:38;21.70;99.90
16158;DHT22;8184;60.256;18.694;2023-06-14T09:07:11;21.80;99.90
16158;DHT22;8184;60.256;18.694;2023-06-14T09:09:39;21.70;99.90
16158;DHT22;8184;60.256;18.694;2023-06-14T09:12:28;22.30;99.90
16158;DHT22;8184;60.256;18.694;2023-06-14T09:14:58;21.40;99.90
16158;DHT22;8184;60.256;18.694;2023-06-14T09:17:28;22.10;99.90
16158;DHT22;8184;60.256;18.694;2023-06-14T09:19:56;22.30;99.90
16158;DHT22;8184;60.256;18.694;2023-06-14T09:22:27;22.10;99.90
16158;DHT22;8184;60.256;18.694;2023-06-14T09:24:57;21.80;99.90
16158;DHT22;8184;60.256;18.694;2023-06-14T09:27:26;21.30;99.90
16158;DHT22;8184;60.256;18.694;2023-06-14T09:29:54;22.10;99.90
16158;DHT22;8184;60.256;18.694;2023-06-14T09:32:23;22.50;99.90
16158;DHT22;8184;60.256;18.694;2023-06-14T09:34:54;23.10;99.90
16158;DHT22;8184;60.256;18.694;2023-06-14T09:37:28;22.60;99.90
16158;DHT22;8184;60.256;18.694;2023-06-14T09:39:57;22.90;99.90
16158;DHT22;8184;60.256;18.694;2023-06-14T09:42:26;22.30;99.90
16158;DHT22;8184;60.256;18.694;2023-06-14T09:44:55;22.30;99.90
16158;DHT22;8184;60.256;18.694;2023-06-14T09:47:24;21.80;99.90
16158;DHT22;8184;60.256;18.694;2023-06-14T09:49:54;21.90;99.90
16158;DHT22;8184;60.256;18.694;2023-06-14T09:52:27;21.40;99.90
16158;DHT22;8184;60.256;18.694;2023-06-14T09:54:57;21.30;99.90
16158;DHT22;8184;60.256;18.694;2023-06-14T09:57:26;20.90;99.90
16158;DHT22;8184;60.256;18.694;2023-06-14T09:59:56;21.00;99.90
16158;DHT22;8184;60.256;18.694;2023-06-14T10:02:28;21.20;99.90
16158;DHT22;8184;60.256;18.694;2023-06-14T10:05:02;21.10;99.90
16158;DHT22;8184;60.256;18.694;2023-06-14T10:07:35;21.70;99.90
16158;DHT22;8184;60.256;18.694;2023-06-14T10:10:07;21.50;99.90
16158;DHT22;8184;60.256;18.694;2023-06-14T10:12:35;21.10;99.90
16158;DHT22;8184;60.256;18.694;2023-06-14T10:15:05;21.60;99.90
16158;DHT22;8184;60.256;18.694;2023-06-14T10:17:40;21.50;99.90
16158;DHT22;8184;60.256;18.694;2023-06-14T10:20:14;21.50;99.90
16158;DHT22;8184;60.256;18.694;2023-06-14T10:22:47;21.50;99.90
16158;DHT22;8184;60.256;18.694;2023-06-14T10:25:26;21.50;99.90
16158;DHT22;8184;60.256;18.694;2023-06-14T10:28:16;21.40;99.90
16158;DHT22;8184;60.256;18.694;2023-06-14T10:31:01;22.00;99.90
16158;DHT22;8184;60.256;18.694;2023-06-14T10:33:31;21.80;99.90
16158;DHT22;8184;60.256;18.694;2023-06-14T10:41:38;21.30;99.90
16158;DHT22;8184;60.256;18.694;2023-06-14T10:47:07;20.70;99.90
16158;DHT22;8184;60.256;18.694;2023-06-14T10:49:39;21.40;99.90
16158;DHT22;8184;60.256;18.694;2023-06-14T10:52:10;21.60;99.90
16158;DHT22;8184;60.256;18.694;2023-06-14T10:57:34;22.30;99.90
16158;DHT22;8184;60.256;18.694;2023-06-14T11:00:06;22.20;99.90
16158;DHT22;8184;60.256;18.694;2023-06-14T11:02:46;21.60;99.90
16158;DHT22;8184;60.256;18.694;2023-06-14T11:05:20;21.40;99.90
16158;DHT22;8184;60.256;18.694;2023-06-14T11:07:58;21.20;99.90
16158;DHT22;8184;60.256;18.694;2023-06-14T11:10:35;20.80;99.90
16158;DHT22;8184;60.256;18.694;2023-06-14T11:13:05;20.80;99.90
16158;DHT22;8184;60.256;18.694;2023-06-14T11:15:35;21.00;99.90
16158;DHT22;8184;60.256;18.694;2023-06-14T11:18:04;20.80;99.90
16158;DHT22;8184;60.256;18.694;2023-06-14T11:20:34;20.70;99.90
16158;DHT22;8184;60.256;18.694;2023-06-14T11:23:03;21.50;99.90
16158;DHT22;8184;60.256;18.694;2023-06-14T11:25:32;21.60;99.90
16158;DHT22;8184;60.256;18.694;2023-06-14T11:28:02;21.40;99.90
16158;DHT22;8184;60.256;18.694;2023-06-14T11:30:32;21.10;99.90
16158;DHT22;8184;60.256;18.694;2023-06-14T11:33:00;21.70;99.90
16158;DHT22;8184;60.256;18.694;2023-06-14T11:35:30;21.80;99.90
16158;DHT22;8184;60.256;18.694;2023-06-14T11:38:01;21.70;99.90
16158;DHT22;8184;60.256;18.694;2023-06-14T11:40:30;21.90;99.90
16158;DHT22;8184;60.256;18.694;2023-06-14T11:43:01;22.40;99.90
16158;DHT22;8184;60.256;18.694;2023-06-14T11:45:32;21.80;99.90
16158;DHT22;8184;60.256;18.694;2023-06-14T11:48:00;21.30;99.90
16158;DHT22;8184;60.256;18.694;2023-06-14T11:50:29;21.10;99.90
16158;DHT22;8184;60.256;18.694;2023-06-14T11:52:57;20.80;99.90
16158;DHT22;8184;60.256;18.694;2023-06-14T11:55:26;20.60;99.90
16158;DHT22;8184;60.256;18.694;2023-06-14T11:57:55;20.90;99.90
16158;DHT22;8184;60.256;18.694;2023-06-14T12:00:24;20.80;99.90
16158;DHT22;8184;60.256;18.694;2023-06-14T12:02:54;21.10;99.90
16158;DHT22;8184;60.256;18.694;2023-06-14T12:05:24;21.30;99.90
16158;DHT22;8184;60.256;18.694;2023-06-14T12:07:57;21.30;99.90
16158;DHT22;8184;60.256;18.694;2023-06-14T12:10:27;21.00;99.90
16158;DHT22;8184;60.256;18.694;2023-06-14T12:12:59;21.30;99.90
16158;DHT22;8184;60.256;18.694;2023-06-14T12:15:28;21.00;99.90
16158;DHT22;8184;60.256;18.694;2023-06-14T12:17:58;20.60;99.90
16158;DHT22;8184;60.256;18.694;2023-06-14T12:20:28;20.50;99.90
16158;DHT22;8184;60.256;18.694;2023-06-14T12:22:58;20.70;99.90
16158;DHT22;8184;60.256;18.694;2023-06-14T12:25:28;20.60;99.90
16158;DHT22;8184;60.256;18.694;2023-06-14T12:27:58;20.40;99.90
16158;DHT22;8184;60.256;18.694;2023-06-14T12:30:27;20.20;99.90
16158;DHT22;8184;60.256;18.694;2023-06-14T12:32:55;20.80;99.90
16158;DHT22;8184;60.256;18.694;2023-06-14T12:35:25;20.80;99.90
16158;DHT22;8184;60.256;18.694;2023-06-14T12:37:53;20.80;99.90
16158;DHT22;8184;60.256;18.694;2023-06-14T12:40:22;20.80;99.90
16158;DHT22;8184;60.256;18.694;2023-06-14T12:42:50;20.80;99.90
16158;DHT22;8184;60.256;18.694;2023-06-14T12:45:19;22.00;99.90
16158;DHT22;8184;60.256;18.694;2023-06-14T12:47:47;21.00;99.90
16158;DHT22;8184;60.256;18.694;2023-06-14T12:50:16;20.30;99.90
16158;DHT22;8184;60.256;18.694;2023-06-14T12:52:46;20.70;99.90
16158;DHT22;8184;60.256;18.694;2023-06-14T12:55:15;20.90;99.90
16158;DHT22;8184;60.256;18.694;2023-06-14T12:57:43;20.30;99.90
16158;DHT22;8184;60.256;18.694;2023-06-14T13:00:12;21.10;99.90
16158;DHT22;8184;60.256;18.694;2023-06-14T13:02:41;20.40;99.90
16158;DHT22;8184;60.256;18.694;2023-06-14T13:05:10;20.10;99.90
16158;DHT22;8184;60.256;18.694;2023-06-14T13:07:38;20.90;99.90
16158;DHT22;8184;60.256;18.694;2023-06-14T13:10:08;20.40;99.90
16158;DHT22;8184;60.256;18.694;2023-06-14T13:12:36;20.10;99.90
16158;DHT22;8184;60.256;18.694;2023-06-14T13:15:05;20.20;99.90
16158;DHT22;8184;60.256;18.694;2023-06-14T13:17:39;19.30;99.90
16158;DHT22;8184;60.256;18.694;2023-06-14T13:20:08;19.90;99.90
16158;DHT22;8184;60.256;18.694;2023-06-14T13:22:37;19.80;99.90
16158;DHT22;8184;60.256;18.694;2023-06-14T13:25:08;19.80;99.90
16158;DHT22;8184;60.256;18.694;2023-06-14T13:27:36;19.90;99.90
16158;DHT22;8184;60.256;18.694;2023-06-14T13:30:05;19.70;99.90
16158;DHT22;8184;60.256;18.694;2023-06-14T13:32:34;19.70;99.90
16158;DHT22;8184;60.256;18.694;2023-06-14T13:35:02;19.60;99.90
16158;DHT22;8184;60.256;18.694;2023-06-14T13:37:31;19.50;99.90
16158;DHT22;8184;60.256;18.694;2023-06-14T13:40:00;19.20;99.90
16158;DHT22;8184;60.256;18.694;2023-06-14T13:42:30;19.50;99.90
16158;DHT22;8184;60.256;18.694;2023-06-14T13:44:59;19.50;99.90
16158;DHT22;8184;60.256;18.694;2023-06-14T13:47:27;19.70;99.90
16158;DHT22;8184;60.256;18.694;2023-06-14T13:49:55;19.90;99.90
16158;DHT22;8184;60.256;18.694;2023-06-14T13:52:24;20.10;99.90
16158;DHT22;8184;60.256;18.694;2023-06-14T13:54:55;21.10;99.90
16158;DHT22;8184;60.256;18.694;2023-06-14T13:57:24;20.70;99.90
16158;DHT22;8184;60.256;18.694;2023-06-14T13:59:59;20.50;99.90
16158;DHT22;8184;60.256;18.694;2023-06-14T14:02:29;20.70;99.90
16158;DHT22;8184;60.256;18.694;2023-06-14T14:04:59;20.70;99.90
16158;DHT22;8184;60.256;18.694;2023-06-14T14:07:30;20.30;99.90
16158;DHT22;8184;60.256;18.694;2023-06-14T14:09:58;19.80;99.90
16158;DHT22;8184;60.256;18.694;2023-06-14T14:12:26;19.80;99.90
16158;DHT22;8184;60.256;18.694;2023-06-14T14:15:00;19.60;99.90
16158;DHT22;8184;60.256;18.694;2023-06-14T14:17:31;19.80;99.90
16158;DHT22;8184;60.256;18.694;2023-06-14T14:20:00;19.80;99.90
16158;DHT22;8184;60.256;18.694;2023-06-14T14:22:28;20.10;99.90
16158;DHT22;8184;60.256;18.694;2023-06-14T14:24:56;20.10;99.90
16158;DHT22;8184;60.256;18.694;2023-06-14T14:27:25;20.20;99.90
16158;DHT22;8184;60.256;18.694;2023-06-14T14:29:53;20.30;99.90
16158;DHT22;8184;60.256;18.694;2023-06-14T14:32:23;20.20;99.90
16158;DHT22;8184;60.256;18.694;2023-06-14T14:34:51;20.20;99.90
16158;DHT22;8184;60.256;18.694;2023-06-14T14:37:20;20.30;99.90
16158;DHT22;8184;60.256;18.694;2023-06-14T14:39:48;20.50;99.90
16158;DHT22;8184;60.256;18.694;2023-06-14T14:42:17;21.60;99.90
16158;DHT22;8184;60.256;18.694;2023-06-14T14:44:45;20.90;99.90
16158;DHT22;8184;60.256;18.694;2023-06-14T14:47:15;20.40;99.90
16158;DHT22;8184;60.256;18.694;2023-06-14T14:49:45;20.30;99.90
16158;DHT22;8184;60.256;18.694;2023-06-14T14:52:13;20.20;99.90
16158;DHT22;8184;60.256;18.694;2023-06-14T14:54:50;20.10;99.90
16158;DHT22;8184;60.256;18.694;2023-06-14T14:57:18;20.00;99.90
16158;DHT22;8184;60.256;18.694;2023-06-14T14:59:47;20.00;99.90
16158;DHT22;8184;60.256;18.694;2023-06-14T15:02:18;20.60;99.90
16158;DHT22;8184;60.256;18.694;2023-06-14T15:04:48;20.10;99.90
16158;DHT22;8184;60.256;18.694;2023-06-14T15:07:16;20.00;99.90
16158;DHT22;8184;60.256;18.694;2023-06-14T15:09:44;19.80;99.90
16158;DHT22;8184;60.256;18.694;2023-06-14T15:12:17;20.10;99.90
16158;DHT22;8184;60.256;18.694;2023-06-14T15:14:50;20.20;99.90
16158;DHT22;8184;60.256;18.694;2023-06-14T15:17:19;20.10;99.90
16158;DHT22;8184;60.256;18.694;2023-06-14T15:19:49;20.30;99.90
16158;DHT22;8184;60.256;18.694;2023-06-14T15:22:17;20.20;99.90
16158;DHT22;8184;60.256;18.694;2023-06-14T15:24:45;20.70;99.90
16158;DHT22;8184;60.256;18.694;2023-06-14T15:27:16;20.50;99.90
16158;DHT22;8184;60.256;18.694;2023-06-14T15:29:44;20.60;99.90
16158;DHT22;8184;60.256;18.694;2023-06-14T15:32:17;20.90;99.90
16158;DHT22;8184;60.256;18.694;2023-06-14T15:34:45;20.90;99.90
16158;DHT22;8184;60.256;18.694;2023-06-14T15:37:15;21.30;99.90
16158;DHT22;8184;60.256;18.694;2023-06-14T15:39:43;21.00;99.90
16158;DHT22;8184;60.256;18.694;2023-06-14T15:42:13;20.80;99.90
16158;DHT22;8184;60.256;18.694;2023-06-14T15:44:42;21.10;99.90
16158;DHT22;8184;60.256;18.694;2023-06-14T15:47:10;21.10;99.90
16158;DHT22;8184;60.256;18.694;2023-06-14T15:49:39;21.00;99.90
16158;DHT22;8184;60.256;18.694;2023-06-14T15:52:07;21.00;99.90
16158;DHT22;8184;60.256;18.694;2023-06-14T15:54:37;21.40;99.90
16158;DHT22;8184;60.256;18.694;2023-06-14T15:57:07;21.60;99.90